sensor_id;sensor_type;location;lat;lon;timestamp;temperature;humidity
20839;DHT22;10580;51.092;6.828;2022-07-12T00:01:23;15.20;99.90
20839;DHT22;10580;51.092;6.828;2022-07-12T00:03:48;15.20;99.90
20839;DHT22;10580;51.092;6.828;2022-07-12T00:06:14;15.10;99.90
20839;DHT22;10580;51.092;6.828;2022-07-12T00:08:39;15.10;99.90
20839;DHT22;10580;51.092;6.828;2022-07-12T00:11:05;15.10;99.90
20839;DHT22;10580;51.092;6.828;2022-07-12T00:13:31;15.00;99.90
20839;DHT22;10580;51.092;6.828;2022-07-12T00:15:57;15.00;99.90
20839;DHT22;10580;51.092;6.828;2022-07-12T00:18:25;15.00;99.90
20839;DHT22;10580;51.092;6.828;2022-07-12T00:20:51;15.00;99.90
20839;DHT22;10580;51.092;6.828;2022-07-12T00:23:17;14.90;99.90
20839;DHT22;10580;51.092;6.828;2022-07-12T00:25:43;14.90;99.90
20839;DHT22;10580;51.092;6.828;2022-07-12T00:28:08;14.90;99.90
20839;DHT22;10580;51.092;6.828;2022-07-12T00:30:34;14.80;99.90
20839;DHT22;10580;51.092;6.828;2022-07-12T00:33:00;14.80;99.90
20839;DHT22;10580;51.092;6.828;2022-07-12T00:35:26;14.80;99.90
20839;DHT22;10580;51.092;6.828;2022-07-12T00:37:52;14.80;99.90
20839;DHT22;10580;51.092;6.828;2022-07-12T00:40:17;14.70;99.90
20839;DHT22;10580;51.092;6.828;2022-07-12T00:42:43;14.70;99.90
20839;DHT22;10580;51.092;6.828;2022-07-12T00:45:09;14.70;99.90
20839;DHT22;10580;51.092;6.828;2022-07-12T00:47:45;14.70;99.90
20839;DHT22;10580;51.092;6.828;2022-07-12T00:50:14;14.60;99.90
20839;DHT22;10580;51.092;6.828;2022-07-12T00:52:41;14.60;99.90
20839;DHT22;10580;51.092;6.828;2022-07-12T00:55:08;14.60;99.90
20839;DHT22;10580;51.092;6.828;2022-07-12T00:57:34;14.60;99.90
20839;DHT22;10580;51.092;6.828;2022-07-12T01:00:00;14.60;99.90
20839;DHT22;10580;51.092;6.828;2022-07-12T01:02:26;14.50;99.90
20839;DHT22;10580;51.092;6.828;2022-07-12T01:04:55;14.50;99.90
20839;DHT22;10580;51.092;6.828;2022-07-12T01:07:21;14.50;99.90
20839;DHT22;10580;51.092;6.828;2022-07-12T01:09:50;14.50;99.90
20839;DHT22;10580;51.092;6.828;2022-07-12T01:12:16;14.40;99.90
20839;DHT22;10580;51.092;6.828;2022-07-12T01:14:43;14.40;99.90
20839;DHT22;10580;51.092;6.828;2022-07-12T01:17:10;14.40;99.90
20839;DHT22;10580;51.092;6.828;2022-07-12T01:19:36;14.30;99.90
20839;DHT22;10580;51.092;6.828;2022-07-12T01:22:08;14.30;99.90
20839;DHT22;10580;51.092;6.828;2022-07-12T01:24:34;14.30;99.90
20839;DHT22;10580;51.092;6.828;2022-07-12T01:27:02;14.30;99.90
20839;DHT22;10580;51.092;6.828;2022-07-12T01:29:28;14.30;99.90
20839;DHT22;10580;51.092;6.828;2022-07-12T01:31:54;14.30;99.90
20839;DHT22;10580;51.092;6.828;2022-07-12T01:34:20;14.20;99.90
20839;DHT22;10580;51.092;6.828;2022-07-12T01:36:47;14.20;99.90
20839;DHT22;10580;51.092;6.828;2022-07-12T01:39:13;14.10;99.90
20839;DHT22;10580;51.092;6.828;2022-07-12T01:41:38;14.10;99.90
20839;DHT22;10580;51.092;6.828;2022-07-12T01:44:05;14.10;99.90
20839;DHT22;10580;51.092;6.828;2022-07-12T01:46:31;14.10;99.90
20839;DHT22;10580;51.092;6.828;2022-07-12T01:48:57;14.10;99.90
20839;DHT22;10580;51.092;6.828;2022-07-12T01:51:22;14.00;99.90
20839;DHT22;10580;51.092;6.828;2022-07-12T01:53:48;14.00;99.90
20839;DHT22;10580;51.092;6.828;2022-07-12T01:56:14;14.00;99.90
20839;DHT22;10580;51.092;6.828;2022-07-12T01:58:41;14.00;99.90
20839;DHT22;10580;51.092;6.828;2022-07-12T02:01:09;14.00;99.90
20839;DHT22;10580;51.092;6.828;2022-07-12T02:03:38;13.90;99.90
20839;DHT22;10580;51.092;6.828;2022-07-12T02:06:04;13.90;99.90
20839;DHT22;10580;51.092;6.828;2022-07-12T02:08:29;13.90;99.90
20839;DHT22;10580;51.092;6.828;2022-07-12T02:10:55;13.80;99.90
20839;DHT22;10580;51.092;6.828;2022-07-12T02:13:21;13.80;99.90
20839;DHT22;10580;51.092;6.828;2022-07-12T02:15:49;13.80;99.90
20839;DHT22;10580;51.092;6.828;2022-07-12T02:18:14;13.80;99.90
20839;DHT22;10580;51.092;6.828;2022-07-12T02:20:40;13.80;99.90
20839;DHT22;10580;51.092;6.828;2022-07-12T02:23:05;13.80;99.90
20839;DHT22;10580;51.092;6.828;2022-07-12T02:25:31;13.80;99.90
20839;DHT22;10580;51.092;6.828;2022-07-12T02:27:56;13.80;99.90
20839;DHT22;10580;51.092;6.828;2022-07-12T02:30:22;13.80;99.90
20839;DHT22;10580;51.092;6.828;2022-07-12T02:32:48;13.70;99.90
20839;DHT22;10580;51.092;6.828;2022-07-12T02:35:13;13.70;99.90
20839;DHT22;10580;51.092;6.828;2022-07-12T02:37:39;13.70;99.90
20839;DHT22;10580;51.092;6.828;2022-07-12T02:40:10;13.70;99.90
20839;DHT22;10580;51.092;6.828;2022-07-12T02:43:25;13.60;99.90
20839;DHT22;10580;51.092;6.828;2022-07-12T02:45:55;13.50;99.90
20839;DHT22;10580;51.092;6.828;2022-07-12T02:48:32;13.50;99.90
20839;DHT22;10580;51.092;6.828;2022-07-12T02:51:02;13.50;99.90
20839;DHT22;10580;51.092;6.828;2022-07-12T02:53:38;13.50;99.90
20839;DHT22;10580;51.092;6.828;2022-07-12T02:56:06;13.50;99.90
20839;DHT22;10580;51.092;6.828;2022-07-12T02:58:35;13.50;99.90
20839;DHT22;10580;51.092;6.828;2022-07-12T03:01:04;13.50;99.90
20839;DHT22;10580;51.092;6.828;2022-07-12T03:03:39;13.50;99.90
20839;DHT22;10580;51.092;6.828;2022-07-12T03:06:05;13.40;99.90
20839;DHT22;10580;51.092;6.828;2022-07-12T03:08:30;13.40;99.90
20839;DHT22;10580;51.092;6.828;2022-07-12T03:10:56;13.40;99.90
20839;DHT22;10580;51.092;6.828;2022-07-12T03:13:27;13.40;99.90
20839;DHT22;10580;51.092;6.828;2022-07-12T03:16:06;13.40;99.90
20839;DHT22;10580;51.092;6.828;2022-07-12T03:18:46;13.40;99.90
20839;DHT22;10580;51.092;6.828;2022-07-12T03:21:12;13.40;99.90
20839;DHT22;10580;51.092;6.828;2022-07-12T03:23:38;13.40;99.90
20839;DHT22;10580;51.092;6.828;2022-07-12T03:26:06;13.40;99.90
20839;DHT22;10580;51.092;6.828;2022-07-12T03:28:32;13.40;99.90
20839;DHT22;10580;51.092;6.828;2022-07-12T03:30:57;13.40;99.90
20839;DHT22;10580;51.092;6.828;2022-07-12T03:33:23;13.40;99.90
20839;DHT22;10580;51.092;6.828;2022-07-12T03:35:49;13.40;99.90
20839;DHT22;10580;51.092;6.828;2022-07-12T03:38:15;13.40;99.90
20839;DHT22;10580;51.092;6.828;2022-07-12T03:40:40;13.40;99.90
20839;DHT22;10580;51.092;6.828;2022-07-12T03:43:09;13.40;99.90
20839;DHT22;10580;51.092;6.828;2022-07-12T03:45:50;13.40;99.90
20839;DHT22;10580;51.092;6.828;2022-07-12T03:48:15;13.40;99.90
20839;DHT22;10580;51.092;6.828;2022-07-12T03:50:45;13.40;99.90
20839;DHT22;10580;51.092;6.828;2022-07-12T03:53:14;13.40;99.90
20839;DHT22;10580;51.092;6.828;2022-07-12T03:55:40;13.50;99.90
20839;DHT22;10580;51.092;6.828;2022-07-12T03:58:06;13.50;99.90
20839;DHT22;10580;51.092;6.828;2022-07-12T04:00:34;13.50;99.90
20839;DHT22;10580;51.092;6.828;2022-07-12T04:03:05;13.60;99.90
20839;DHT22;10580;51.092;6.828;2022-07-12T04:08:16;13.90;99.90
20839;DHT22;10580;51.092;6.828;2022-07-12T04:10:42;13.90;99.90
20839;DHT22;10580;51.092;6.828;2022-07-12T04:13:07;14.00;99.90
20839;DHT22;10580;51.092;6.828;2022-07-12T04:22:00;14.30;99.90
20839;DHT22;10580;51.092;6.828;2022-07-12T04:24:26;14.30;99.90
20839;DHT22;10580;51.092;6.828;2022-07-12T04:26:52;14.40;99.90
20839;DHT22;10580;51.092;6.828;2022-07-12T04:29:18;14.40;99.90
20839;DHT22;10580;51.092;6.828;2022-07-12T04:31:44;14.50;99.90
20839;DHT22;10580;51.092;6.828;2022-07-12T04:41:50;14.80;99.90
20839;DHT22;10580;51.092;6.828;2022-07-12T04:44:16;14.90;99.90
20839;DHT22;10580;51.092;6.828;2022-07-12T04:46:41;15.10;99.90
20839;DHT22;10580;51.092;6.828;2022-07-12T04:49:08;15.20;99.90
20839;DHT22;10580;51.092;6.828;2022-07-12T04:51:37;15.40;99.90
20839;DHT22;10580;51.092;6.828;2022-07-12T04:54:05;15.60;99.90
20839;DHT22;10580;51.092;6.828;2022-07-12T04:56:44;15.70;99.90
20839;DHT22;10580;51.092;6.828;2022-07-12T04:59:18;16.00;99.90
20839;DHT22;10580;51.092;6.828;2022-07-12T05:01:46;16.20;99.90
20839;DHT22;10580;51.092;6.828;2022-07-12T05:04:12;16.40;99.90
20839;DHT22;10580;51.092;6.828;2022-07-12T05:06:37;16.60;99.90
20839;DHT22;10580;51.092;6.828;2022-07-12T05:09:03;16.90;99.90
20839;DHT22;10580;51.092;6.828;2022-07-12T05:11:29;17.20;99.90
20839;DHT22;10580;51.092;6.828;2022-07-12T05:13:54;17.50;99.90
20839;DHT22;10580;51.092;6.828;2022-07-12T05:16:20;17.70;99.90
20839;DHT22;10580;51.092;6.828;2022-07-12T05:18:49;18.20;99.90
20839;DHT22;10580;51.092;6.828;2022-07-12T05:21:24;18.80;99.90
20839;DHT22;10580;51.092;6.828;2022-07-12T05:23:49;19.30;99.90
20839;DHT22;10580;51.092;6.828;2022-07-12T05:26:24;19.60;99.90
20839;DHT22;10580;51.092;6.828;2022-07-12T05:28:50;20.00;99.90
20839;DHT22;10580;51.092;6.828;2022-07-12T05:31:15;20.50;99.90
20839;DHT22;10580;51.092;6.828;2022-07-12T05:33:41;20.90;99.90
20839;DHT22;10580;51.092;6.828;2022-07-12T05:36:07;21.30;99.90
20839;DHT22;10580;51.092;6.828;2022-07-12T05:38:32;21.80;99.90
20839;DHT22;10580;51.092;6.828;2022-07-12T05:40:58;22.50;99.90
20839;DHT22;10580;51.092;6.828;2022-07-12T05:43:23;23.00;99.90
20839;DHT22;10580;51.092;6.828;2022-07-12T05:45:49;23.50;81.60
20839;DHT22;10580;51.092;6.828;2022-07-12T05:48:14;23.90;39.70
20839;DHT22;10580;51.092;6.828;2022-07-12T05:50:40;23.90;1.00
20839;DHT22;10580;51.092;6.828;2022-07-12T05:53:06;24.00;1.00
20839;DHT22;10580;51.092;6.828;2022-07-12T05:55:54;24.20;1.00
20839;DHT22;10580;51.092;6.828;2022-07-12T05:58:20;24.60;1.00
20839;DHT22;10580;51.092;6.828;2022-07-12T06:00:46;24.90;1.00
20839;DHT22;10580;51.092;6.828;2022-07-12T06:03:13;25.20;1.00
20839;DHT22;10580;51.092;6.828;2022-07-12T06:05:39;25.60;1.00
20839;DHT22;10580;51.092;6.828;2022-07-12T06:08:05;25.90;1.00
20839;DHT22;10580;51.092;6.828;2022-07-12T06:10:34;26.40;1.00
20839;DHT22;10580;51.092;6.828;2022-07-12T06:13:03;26.90;1.00
20839;DHT22;10580;51.092;6.828;2022-07-12T06:15:32;27.30;99.90
20839;DHT22;10580;51.092;6.828;2022-07-12T06:18:02;27.90;99.90
20839;DHT22;10580;51.092;6.828;2022-07-12T06:20:28;28.10;99.90
20839;DHT22;10580;51.092;6.828;2022-07-12T06:23:02;28.20;99.90
20839;DHT22;10580;51.092;6.828;2022-07-12T06:25:50;28.50;80.70
20839;DHT22;10580;51.092;6.828;2022-07-12T06:28:16;28.70;99.90
20839;DHT22;10580;51.092;6.828;2022-07-12T06:30:42;28.70;99.90
20839;DHT22;10580;51.092;6.828;2022-07-12T06:33:07;28.70;99.90
20839;DHT22;10580;51.092;6.828;2022-07-12T06:35:33;28.50;99.90
20839;DHT22;10580;51.092;6.828;2022-07-12T06:38:02;28.40;1.00
20839;DHT22;10580;51.092;6.828;2022-07-12T06:40:28;28.30;1.00
20839;DHT22;10580;51.092;6.828;2022-07-12T06:42:54;28.30;1.00
20839;DHT22;10580;51.092;6.828;2022-07-12T06:45:19;28.00;99.90
20839;DHT22;10580;51.092;6.828;2022-07-12T06:47:47;27.90;1.00
20839;DHT22;10580;51.092;6.828;2022-07-12T06:50:13;28.00;1.00
20839;DHT22;10580;51.092;6.828;2022-07-12T06:52:39;28.20;1.00
20839;DHT22;10580;51.092;6.828;2022-07-12T06:55:05;28.40;1.00
20839;DHT22;10580;51.092;6.828;2022-07-12T06:57:30;28.40;99.90
20839;DHT22;10580;51.092;6.828;2022-07-12T06:59:57;28.40;1.00
20839;DHT22;10580;51.092;6.828;2022-07-12T07:02:22;28.20;1.00
20839;DHT22;10580;51.092;6.828;2022-07-12T07:04:48;27.90;99.90
20839;DHT22;10580;51.092;6.828;2022-07-12T07:07:14;28.10;1.00
20839;DHT22;10580;51.092;6.828;2022-07-12T07:09:39;28.20;99.90
20839;DHT22;10580;51.092;6.828;2022-07-12T07:12:06;28.50;1.00
20839;DHT22;10580;51.092;6.828;2022-07-12T07:14:36;28.60;1.00
20839;DHT22;10580;51.092;6.828;2022-07-12T07:17:02;28.60;99.90
20839;DHT22;10580;51.092;6.828;2022-07-12T07:19:27;28.40;99.90
20839;DHT22;10580;51.092;6.828;2022-07-12T07:21:55;28.60;1.00
20839;DHT22;10580;51.092;6.828;2022-07-12T07:24:21;28.80;1.00
20839;DHT22;10580;51.092;6.828;2022-07-12T07:26:48;28.80;99.90
20839;DHT22;10580;51.092;6.828;2022-07-12T07:29:13;28.60;1.00
20839;DHT22;10580;51.092;6.828;2022-07-12T07:31:58;28.70;1.00
20839;DHT22;10580;51.092;6.828;2022-07-12T07:34:23;28.30;1.00
20839;DHT22;10580;51.092;6.828;2022-07-12T07:36:52;28.40;1.00
20839;DHT22;10580;51.092;6.828;2022-07-12T07:39:21;28.70;38.20
20839;DHT22;10580;51.092;6.828;2022-07-12T07:41:46;28.60;93.60
20839;DHT22;10580;51.092;6.828;2022-07-12T07:44:12;28.60;1.00
20839;DHT22;10580;51.092;6.828;2022-07-12T07:46:39;28.70;72.10
20839;DHT22;10580;51.092;6.828;2022-07-12T07:49:14;28.70;99.90
20839;DHT22;10580;51.092;6.828;2022-07-12T07:51:40;28.30;1.00
20839;DHT22;10580;51.092;6.828;2022-07-12T07:54:11;28.50;1.00
20839;DHT22;10580;51.092;6.828;2022-07-12T07:56:36;28.60;76.90
20839;DHT22;10580;51.092;6.828;2022-07-12T07:59:02;28.90;1.00
20839;DHT22;10580;51.092;6.828;2022-07-12T08:01:28;28.80;1.00
20839;DHT22;10580;51.092;6.828;2022-07-12T08:04:14;29.00;1.00
20839;DHT22;10580;51.092;6.828;2022-07-12T08:06:42;29.20;99.90
20839;DHT22;10580;51.092;6.828;2022-07-12T08:09:08;29.30;1.00
20839;DHT22;10580;51.092;6.828;2022-07-12T08:11:35;28.80;1.00
20839;DHT22;10580;51.092;6.828;2022-07-12T08:14:04;29.10;1.00
20839;DHT22;10580;51.092;6.828;2022-07-12T08:16:31;29.30;1.00
20839;DHT22;10580;51.092;6.828;2022-07-12T08:18:57;29.60;1.00
20839;DHT22;10580;51.092;6.828;2022-07-12T08:21:22;29.00;1.00
20839;DHT22;10580;51.092;6.828;2022-07-12T08:29:06;29.10;99.90
20839;DHT22;10580;51.092;6.828;2022-07-12T08:31:31;29.40;1.00
20839;DHT22;10580;51.092;6.828;2022-07-12T08:33:57;29.70;99.90
20839;DHT22;10580;51.092;6.828;2022-07-12T08:36:25;29.10;1.00
20839;DHT22;10580;51.092;6.828;2022-07-12T08:38:51;29.00;1.00
20839;DHT22;10580;51.092;6.828;2022-07-12T08:41:16;29.20;1.00
20839;DHT22;10580;51.092;6.828;2022-07-12T08:43:42;29.60;99.90
20839;DHT22;10580;51.092;6.828;2022-07-12T08:46:09;29.40;1.00
20839;DHT22;10580;51.092;6.828;2022-07-12T08:48:36;29.70;99.90
20839;DHT22;10580;51.092;6.828;2022-07-12T08:51:14;29.50;99.90
20839;DHT22;10580;51.092;6.828;2022-07-12T08:53:40;29.40;1.00
20839;DHT22;10580;51.092;6.828;2022-07-12T08:56:07;29.50;99.90
20839;DHT22;10580;51.092;6.828;2022-07-12T08:58:32;29.30;2.90
20839;DHT22;10580;51.092;6.828;2022-07-12T09:00:58;29.10;1.00
20839;DHT22;10580;51.092;6.828;2022-07-12T09:03:24;28.90;99.90
20839;DHT22;10580;51.092;6.828;2022-07-12T09:05:52;29.00;99.90
20839;DHT22;10580;51.092;6.828;2022-07-12T09:08:18;28.80;99.90
20839;DHT22;10580;51.092;6.828;2022-07-12T09:11:01;29.30;1.00
20839;DHT22;10580;51.092;6.828;2022-07-12T09:13:50;29.60;1.00
20839;DHT22;10580;51.092;6.828;2022-07-12T09:16:20;29.90;1.00
20839;DHT22;10580;51.092;6.828;2022-07-12T09:18:47;29.80;1.00
20839;DHT22;10580;51.092;6.828;2022-07-12T09:21:26;29.60;99.90
20839;DHT22;10580;51.092;6.828;2022-07-12T09:23:58;29.70;1.00
20839;DHT22;10580;51.092;6.828;2022-07-12T09:26:30;29.90;89.10
20839;DHT22;10580;51.092;6.828;2022-07-12T09:29:08;30.20;1.00
20839;DHT22;10580;51.092;6.828;2022-07-12T09:31:43;30.40;1.00
20839;DHT22;10580;51.092;6.828;2022-07-12T09:34:31;30.70;99.90
20839;DHT22;10580;51.092;6.828;2022-07-12T09:37:16;30.30;99.90
20839;DHT22;10580;51.092;6.828;2022-07-12T09:39:42;30.20;99.90
20839;DHT22;10580;51.092;6.828;2022-07-12T09:42:12;30.30;99.90
20839;DHT22;10580;51.092;6.828;2022-07-12T09:44:39;30.50;1.00
20839;DHT22;10580;51.092;6.828;2022-07-12T09:47:10;30.90;1.00
20839;DHT22;10580;51.092;6.828;2022-07-12T09:49:39;30.70;1.00
20839;DHT22;10580;51.092;6.828;2022-07-12T09:52:18;30.00;1.00
20839;DHT22;10580;51.092;6.828;2022-07-12T09:54:46;30.50;99.90
20839;DHT22;10580;51.092;6.828;2022-07-12T09:57:31;30.60;1.00
20839;DHT22;10580;51.092;6.828;2022-07-12T09:59:58;30.40;1.00
20839;DHT22;10580;51.092;6.828;2022-07-12T10:02:25;30.40;1.00
20839;DHT22;10580;51.092;6.828;2022-07-12T10:04:51;30.60;1.00
20839;DHT22;10580;51.092;6.828;2022-07-12T10:07:17;30.50;1.00
20839;DHT22;10580;51.092;6.828;2022-07-12T10:09:47;30.80;1.00
20839;DHT22;10580;51.092;6.828;2022-07-12T10:12:17;30.40;1.00
20839;DHT22;10580;51.092;6.828;2022-07-12T10:14:44;30.40;1.00
20839;DHT22;10580;51.092;6.828;2022-07-12T10:17:11;30.30;1.00
20839;DHT22;10580;51.092;6.828;2022-07-12T10:19:38;30.40;1.00
20839;DHT22;10580;51.092;6.828;2022-07-12T10:22:05;30.30;1.00
20839;DHT22;10580;51.092;6.828;2022-07-12T10:29:48;30.20;99.90
20839;DHT22;10580;51.092;6.828;2022-07-12T10:32:24;30.10;99.90
20839;DHT22;10580;51.092;6.828;2022-07-12T10:35:10;30.20;99.90
20839;DHT22;10580;51.092;6.828;2022-07-12T10:37:37;30.20;99.90
20839;DHT22;10580;51.092;6.828;2022-07-12T10:40:18;30.20;99.90
20839;DHT22;10580;51.092;6.828;2022-07-12T10:45:40;30.40;99.90
20839;DHT22;10580;51.092;6.828;2022-07-12T10:53:27;31.00;99.90
20839;DHT22;10580;51.092;6.828;2022-07-12T10:58:51;30.90;99.90
20839;DHT22;10580;51.092;6.828;2022-07-12T11:01:28;31.10;99.90
20839;DHT22;10580;51.092;6.828;2022-07-12T11:04:05;31.20;99.90
20839;DHT22;10580;51.092;6.828;2022-07-12T11:06:49;31.10;99.90
20839;DHT22;10580;51.092;6.828;2022-07-12T11:09:18;31.60;99.90
20839;DHT22;10580;51.092;6.828;2022-07-12T11:11:46;31.70;99.90
20839;DHT22;10580;51.092;6.828;2022-07-12T11:14:29;32.00;99.90
20839;DHT22;10580;51.092;6.828;2022-07-12T11:16:56;31.50;99.90
20839;DHT22;10580;51.092;6.828;2022-07-12T11:19:24;31.50;99.90
20839;DHT22;10580;51.092;6.828;2022-07-12T11:21:53;31.50;99.90
20839;DHT22;10580;51.092;6.828;2022-07-12T11:24:24;31.50;99.90
20839;DHT22;10580;51.092;6.828;2022-07-12T11:26:50;31.70;99.90
20839;DHT22;10580;51.092;6.828;2022-07-12T11:29:17;31.90;99.90
20839;DHT22;10580;51.092;6.828;2022-07-12T11:31:46;31.90;68.00
20839;DHT22;10580;51.092;6.828;2022-07-12T11:34:25;32.00;86.90
20839;DHT22;10580;51.092;6.828;2022-07-12T11:36:53;31.70;20.30
20839;DHT22;10580;51.092;6.828;2022-07-12T11:39:35;31.60;26.80
20839;DHT22;10580;51.092;6.828;2022-07-12T11:42:02;31.70;21.00
20839;DHT22;10580;51.092;6.828;2022-07-12T11:44:51;31.50;14.60
20839;DHT22;10580;51.092;6.828;2022-07-12T11:47:20;31.60;18.20
20839;DHT22;10580;51.092;6.828;2022-07-12T11:49:51;31.40;8.00
20839;DHT22;10580;51.092;6.828;2022-07-12T11:52:18;31.40;93.70
20839;DHT22;10580;51.092;6.828;2022-07-12T11:54:45;31.40;1.00
20839;DHT22;10580;51.092;6.828;2022-07-12T11:57:12;31.50;9.70
20839;DHT22;10580;51.092;6.828;2022-07-12T11:59:38;31.70;10.40
20839;DHT22;10580;51.092;6.828;2022-07-12T12:02:08;31.80;29.50
20839;DHT22;10580;51.092;6.828;2022-07-12T12:07:11;31.60;1.00
20839;DHT22;10580;51.092;6.828;2022-07-12T12:12:36;31.70;1.00
20839;DHT22;10580;51.092;6.828;2022-07-12T12:15:07;31.60;1.00
20839;DHT22;10580;51.092;6.828;2022-07-12T12:17:35;31.70;1.00
20839;DHT22;10580;51.092;6.828;2022-07-12T12:20:11;31.90;1.00
20839;DHT22;10580;51.092;6.828;2022-07-12T12:22:38;31.90;1.00
20839;DHT22;10580;51.092;6.828;2022-07-12T12:25:05;31.50;1.00
20839;DHT22;10580;51.092;6.828;2022-07-12T12:27:31;31.30;1.00
20839;DHT22;10580;51.092;6.828;2022-07-12T12:30:07;31.20;1.00
20839;DHT22;10580;51.092;6.828;2022-07-12T12:32:46;31.10;1.00
20839;DHT22;10580;51.092;6.828;2022-07-12T12:35:13;31.10;1.00
20839;DHT22;10580;51.092;6.828;2022-07-12T12:37:39;31.40;1.00
20839;DHT22;10580;51.092;6.828;2022-07-12T12:40:06;31.30;1.00
20839;DHT22;10580;51.092;6.828;2022-07-12T12:42:32;31.40;1.00
20839;DHT22;10580;51.092;6.828;2022-07-12T12:45:00;31.40;1.00
20839;DHT22;10580;51.092;6.828;2022-07-12T12:47:26;31.70;1.00
20839;DHT22;10580;51.092;6.828;2022-07-12T12:50:05;31.60;1.00
20839;DHT22;10580;51.092;6.828;2022-07-12T12:52:31;31.50;1.00
20839;DHT22;10580;51.092;6.828;2022-07-12T12:54:57;31.40;1.00
20839;DHT22;10580;51.092;6.828;2022-07-12T12:57:27;31.40;1.00
20839;DHT22;10580;51.092;6.828;2022-07-12T12:59:54;31.20;1.00
20839;DHT22;10580;51.092;6.828;2022-07-12T13:02:19;31.00;1.00
20839;DHT22;10580;51.092;6.828;2022-07-12T13:04:47;30.90;1.00
20839;DHT22;10580;51.092;6.828;2022-07-12T13:07:13;31.00;1.00
20839;DHT22;10580;51.092;6.828;2022-07-12T13:09:39;31.20;1.00
20839;DHT22;10580;51.092;6.828;2022-07-12T13:12:05;31.40;1.00
20839;DHT22;10580;51.092;6.828;2022-07-12T13:14:31;31.30;1.00
20839;DHT22;10580;51.092;6.828;2022-07-12T13:16:56;31.40;1.00
20839;DHT22;10580;51.092;6.828;2022-07-12T13:19:22;31.60;1.00
20839;DHT22;10580;51.092;6.828;2022-07-12T13:21:48;31.70;1.00
20839;DHT22;10580;51.092;6.828;2022-07-12T13:24:13;31.90;1.00
20839;DHT22;10580;51.092;6.828;2022-07-12T13:26:39;32.10;1.00
20839;DHT22;10580;51.092;6.828;2022-07-12T13:29:05;32.00;1.00
20839;DHT22;10580;51.092;6.828;2022-07-12T13:31:31;31.90;1.00
20839;DHT22;10580;51.092;6.828;2022-07-12T13:34:04;31.70;1.00
20839;DHT22;10580;51.092;6.828;2022-07-12T13:36:29;31.50;1.00
20839;DHT22;10580;51.092;6.828;2022-07-12T13:38:55;31.70;1.00
20839;DHT22;10580;51.092;6.828;2022-07-12T13:41:41;31.50;1.00
20839;DHT22;10580;51.092;6.828;2022-07-12T13:44:06;31.70;1.00
20839;DHT22;10580;51.092;6.828;2022-07-12T13:46:35;31.60;1.00
20839;DHT22;10580;51.092;6.828;2022-07-12T13:49:01;31.60;1.00
20839;DHT22;10580;51.092;6.828;2022-07-12T13:51:27;31.70;1.00
20839;DHT22;10580;51.092;6.828;2022-07-12T13:53:52;31.30;1.00
20839;DHT22;10580;51.092;6.828;2022-07-12T13:56:18;31.50;1.00
20839;DHT22;10580;51.092;6.828;2022-07-12T13:58:43;31.50;1.00
20839;DHT22;10580;51.092;6.828;2022-07-12T14:01:09;31.30;1.00
20839;DHT22;10580;51.092;6.828;2022-07-12T14:03:35;31.10;1.00
20839;DHT22;10580;51.092;6.828;2022-07-12T14:06:01;31.20;1.00
20839;DHT22;10580;51.092;6.828;2022-07-12T14:08:27;31.10;1.00
20839;DHT22;10580;51.092;6.828;2022-07-12T14:10:52;31.00;1.00
20839;DHT22;10580;51.092;6.828;2022-07-12T14:13:18;31.00;1.00
20839;DHT22;10580;51.092;6.828;2022-07-12T14:15:44;31.10;1.00
20839;DHT22;10580;51.092;6.828;2022-07-12T14:18:10;31.30;1.00
20839;DHT22;10580;51.092;6.828;2022-07-12T14:20:36;31.50;1.00
20839;DHT22;10580;51.092;6.828;2022-07-12T14:23:03;31.30;1.00
20839;DHT22;10580;51.092;6.828;2022-07-12T14:25:29;31.30;1.00
20839;DHT22;10580;51.092;6.828;2022-07-12T14:27:54;31.10;1.00
20839;DHT22;10580;51.092;6.828;2022-07-12T14:30:20;31.30;1.00
20839;DHT22;10580;51.092;6.828;2022-07-12T14:32:46;31.50;1.00
20839;DHT22;10580;51.092;6.828;2022-07-12T14:35:15;31.60;1.00
20839;DHT22;10580;51.092;6.828;2022-07-12T14:37:41;31.50;1.00
20839;DHT22;10580;51.092;6.828;2022-07-12T14:40:07;31.30;1.00
20839;DHT22;10580;51.092;6.828;2022-07-12T14:42:33;31.20;1.00
20839;DHT22;10580;51.092;6.828;2022-07-12T14:44:59;31.10;1.00
20839;DHT22;10580;51.092;6.828;2022-07-12T14:47:25;31.00;1.00
20839;DHT22;10580;51.092;6.828;2022-07-12T14:49:50;30.80;1.00
20839;DHT22;10580;51.092;6.828;2022-07-12T14:52:18;30.80;1.00
20839;DHT22;10580;51.092;6.828;2022-07-12T14:54:44;31.00;1.00
20839;DHT22;10580;51.092;6.828;2022-07-12T14:57:10;31.00;1.00
20839;DHT22;10580;51.092;6.828;2022-07-12T14:59:36;30.90;1.00
20839;DHT22;10580;51.092;6.828;2022-07-12T15:02:02;30.50;1.00
20839;DHT22;10580;51.092;6.828;2022-07-12T15:04:28;30.30;1.00
20839;DHT22;10580;51.092;6.828;2022-07-12T15:07:03;30.40;1.00
20839;DHT22;10580;51.092;6.828;2022-07-12T15:09:29;30.30;1.00
20839;DHT22;10580;51.092;6.828;2022-07-12T15:11:55;30.40;1.00
20839;DHT22;10580;51.092;6.828;2022-07-12T15:14:24;30.40;1.00
20839;DHT22;10580;51.092;6.828;2022-07-12T15:16:57;30.40;1.00
20839;DHT22;10580;51.092;6.828;2022-07-12T15:19:23;30.40;1.00
20839;DHT22;10580;51.092;6.828;2022-07-12T15:21:51;30.30;1.00
20839;DHT22;10580;51.092;6.828;2022-07-12T15:24:20;30.50;1.00
20839;DHT22;10580;51.092;6.828;2022-07-12T15:26:46;30.70;1.00
20839;DHT22;10580;51.092;6.828;2022-07-12T15:29:24;30.60;1.00
20839;DHT22;10580;51.092;6.828;2022-07-12T15:35:23;30.30;1.00
20839;DHT22;10580;51.092;6.828;2022-07-12T15:37:49;30.30;1.00
20839;DHT22;10580;51.092;6.828;2022-07-12T15:40:22;30.20;1.00
20839;DHT22;10580;51.092;6.828;2022-07-12T15:42:51;30.00;1.00
20839;DHT22;10580;51.092;6.828;2022-07-12T15:45:17;29.80;1.00
20839;DHT22;10580;51.092;6.828;2022-07-12T15:47:43;29.60;1.00
20839;DHT22;10580;51.092;6.828;2022-07-12T15:50:14;29.60;1.00
20839;DHT22;10580;51.092;6.828;2022-07-12T15:52:43;29.60;1.00
20839;DHT22;10580;51.092;6.828;2022-07-12T15:55:30;29.50;1.00
20839;DHT22;10580;51.092;6.828;2022-07-12T15:57:59;29.50;1.00
20839;DHT22;10580;51.092;6.828;2022-07-12T16:00:25;29.60;1.00
20839;DHT22;10580;51.092;6.828;2022-07-12T16:06:03;29.70;1.00
20839;DHT22;10580;51.092;6.828;2022-07-12T16:08:35;29.90;1.00
20839;DHT22;10580;51.092;6.828;2022-07-12T16:11:26;30.00;1.00
20839;DHT22;10580;51.092;6.828;2022-07-12T16:13:52;29.90;1.00
20839;DHT22;10580;51.092;6.828;2022-07-12T16:16:20;30.20;1.00
20839;DHT22;10580;51.092;6.828;2022-07-12T16:18:49;30.40;1.00
20839;DHT22;10580;51.092;6.828;2022-07-12T16:21:18;30.60;1.00
20839;DHT22;10580;51.092;6.828;2022-07-12T16:23:44;30.60;1.00
20839;DHT22;10580;51.092;6.828;2022-07-12T16:26:12;30.30;1.00
20839;DHT22;10580;51.092;6.828;2022-07-12T16:28:41;30.20;1.00
20839;DHT22;10580;51.092;6.828;2022-07-12T16:33:53;29.70;1.00
20839;DHT22;10580;51.092;6.828;2022-07-12T16:39:50;29.20;1.00
20839;DHT22;10580;51.092;6.828;2022-07-12T16:51:32;28.80;84.70